Terminal Aerodrome Forecast
Issued by NWS

Home | Current Version | Previous Version | Text Only | Print | Product List | Glossary On
Versions: 1 2 3 4 5 6 7 8 9 10 11 12 13
000
FTUS42 TJSJ 060500
TAFJPS
TAF
TJPS 060539Z 0606/0706 06007KT P6SM FEW030
     FM061500 13015KT P6SM FEW030 SCT060
     FM062330 06007KT P6SM FEW030 FEW060
      AMD NOT SKED 0612/0703=

USA.gov is the U.S. government's official web portal to all federal, state and local government web resources and services.